sensor_id;sensor_type;location;lat;lon;timestamp;temperature;humidity
10536;DHT22;5316;49.538;8.352;2023-05-10T00:00:18;14.40;99.90
10536;DHT22;5316;49.538;8.352;2023-05-10T00:02:45;14.40;99.90
10536;DHT22;5316;49.538;8.352;2023-05-10T00:05:12;14.40;99.90
10536;DHT22;5316;49.538;8.352;2023-05-10T00:07:39;14.30;99.90
10536;DHT22;5316;49.538;8.352;2023-05-10T00:10:06;14.30;99.90
10536;DHT22;5316;49.538;8.352;2023-05-10T00:12:33;14.30;99.90
10536;DHT22;5316;49.538;8.352;2023-05-10T00:15:01;14.30;99.90
10536;DHT22;5316;49.538;8.352;2023-05-10T00:17:28;14.30;99.90
10536;DHT22;5316;49.538;8.352;2023-05-10T00:19:54;14.30;99.90
10536;DHT22;5316;49.538;8.352;2023-05-10T00:22:21;14.30;99.90
10536;DHT22;5316;49.538;8.352;2023-05-10T00:24:48;14.30;99.90
10536;DHT22;5316;49.538;8.352;2023-05-10T00:27:15;14.30;99.90
10536;DHT22;5316;49.538;8.352;2023-05-10T00:29:41;14.20;99.90
10536;DHT22;5316;49.538;8.352;2023-05-10T00:32:09;14.20;99.90
10536;DHT22;5316;49.538;8.352;2023-05-10T00:34:36;14.20;99.90
10536;DHT22;5316;49.538;8.352;2023-05-10T00:37:02;14.20;99.90
10536;DHT22;5316;49.538;8.352;2023-05-10T00:39:29;14.10;99.90
10536;DHT22;5316;49.538;8.352;2023-05-10T00:41:56;14.10;99.90
10536;DHT22;5316;49.538;8.352;2023-05-10T00:44:22;14.10;99.90
10536;DHT22;5316;49.538;8.352;2023-05-10T00:46:49;14.10;99.90
10536;DHT22;5316;49.538;8.352;2023-05-10T00:49:17;14.10;99.90
10536;DHT22;5316;49.538;8.352;2023-05-10T00:51:44;14.10;99.90
10536;DHT22;5316;49.538;8.352;2023-05-10T00:54:11;14.10;99.90
10536;DHT22;5316;49.538;8.352;2023-05-10T00:56:38;14.00;99.90
10536;DHT22;5316;49.538;8.352;2023-05-10T00:59:05;14.10;99.90
10536;DHT22;5316;49.538;8.352;2023-05-10T01:01:32;14.10;99.90
10536;DHT22;5316;49.538;8.352;2023-05-10T01:03:59;14.10;99.90
10536;DHT22;5316;49.538;8.352;2023-05-10T01:06:27;14.10;99.90
10536;DHT22;5316;49.538;8.352;2023-05-10T01:08:54;14.10;99.90
10536;DHT22;5316;49.538;8.352;2023-05-10T01:11:21;14.10;99.90
10536;DHT22;5316;49.538;8.352;2023-05-10T01:13:54;14.10;99.90
10536;DHT22;5316;49.538;8.352;2023-05-10T01:16:22;14.10;99.90
10536;DHT22;5316;49.538;8.352;2023-05-10T01:18:49;14.10;99.90
10536;DHT22;5316;49.538;8.352;2023-05-10T01:21:22;14.10;99.90
10536;DHT22;5316;49.538;8.352;2023-05-10T01:24:09;14.20;99.90
10536;DHT22;5316;49.538;8.352;2023-05-10T01:27:07;14.10;99.90
10536;DHT22;5316;49.538;8.352;2023-05-10T01:30:05;14.10;99.90
10536;DHT22;5316;49.538;8.352;2023-05-10T01:32:37;14.10;99.90
10536;DHT22;5316;49.538;8.352;2023-05-10T01:35:10;14.10;99.90
10536;DHT22;5316;49.538;8.352;2023-05-10T01:37:45;14.10;99.90
10536;DHT22;5316;49.538;8.352;2023-05-10T01:40:19;14.10;99.90
10536;DHT22;5316;49.538;8.352;2023-05-10T01:42:50;14.10;99.90
10536;DHT22;5316;49.538;8.352;2023-05-10T01:45:21;14.10;99.90
10536;DHT22;5316;49.538;8.352;2023-05-10T01:47:58;14.10;99.90
10536;DHT22;5316;49.538;8.352;2023-05-10T01:50:30;14.10;99.90
10536;DHT22;5316;49.538;8.352;2023-05-10T01:52:58;14.10;99.90
10536;DHT22;5316;49.538;8.352;2023-05-10T01:55:28;14.10;99.90
10536;DHT22;5316;49.538;8.352;2023-05-10T01:58:00;14.10;99.90
10536;DHT22;5316;49.538;8.352;2023-05-10T02:00:29;14.10;99.90
10536;DHT22;5316;49.538;8.352;2023-05-10T02:03:00;14.00;99.90
10536;DHT22;5316;49.538;8.352;2023-05-10T02:05:29;14.10;99.90
10536;DHT22;5316;49.538;8.352;2023-05-10T02:07:56;14.10;99.90
10536;DHT22;5316;49.538;8.352;2023-05-10T02:10:24;14.10;99.90
10536;DHT22;5316;49.538;8.352;2023-05-10T02:12:52;14.10;99.90
10536;DHT22;5316;49.538;8.352;2023-05-10T02:15:22;14.10;99.90
10536;DHT22;5316;49.538;8.352;2023-05-10T02:17:50;14.10;99.90
10536;DHT22;5316;49.538;8.352;2023-05-10T02:20:19;14.00;99.90
10536;DHT22;5316;49.538;8.352;2023-05-10T02:22:49;14.00;99.90
10536;DHT22;5316;49.538;8.352;2023-05-10T02:25:18;14.00;99.90
10536;DHT22;5316;49.538;8.352;2023-05-10T02:27:46;14.00;99.90
10536;DHT22;5316;49.538;8.352;2023-05-10T02:30:14;14.00;99.90
10536;DHT22;5316;49.538;8.352;2023-05-10T02:32:42;14.00;99.90
10536;DHT22;5316;49.538;8.352;2023-05-10T02:35:11;14.00;99.90
10536;DHT22;5316;49.538;8.352;2023-05-10T02:37:39;14.00;99.90
10536;DHT22;5316;49.538;8.352;2023-05-10T02:40:08;14.00;99.90
10536;DHT22;5316;49.538;8.352;2023-05-10T02:42:37;14.00;99.90
10536;DHT22;5316;49.538;8.352;2023-05-10T02:45:10;13.90;99.90
10536;DHT22;5316;49.538;8.352;2023-05-10T02:47:37;13.90;99.90
10536;DHT22;5316;49.538;8.352;2023-05-10T02:50:05;13.90;99.90
10536;DHT22;5316;49.538;8.352;2023-05-10T02:52:40;13.90;99.90
10536;DHT22;5316;49.538;8.352;2023-05-10T02:55:11;13.90;99.90
10536;DHT22;5316;49.538;8.352;2023-05-10T02:57:41;14.00;99.90
10536;DHT22;5316;49.538;8.352;2023-05-10T03:00:10;14.00;99.90
10536;DHT22;5316;49.538;8.352;2023-05-10T03:02:37;13.90;99.90
10536;DHT22;5316;49.538;8.352;2023-05-10T03:05:04;13.90;99.90
10536;DHT22;5316;49.538;8.352;2023-05-10T03:07:30;14.00;99.90
10536;DHT22;5316;49.538;8.352;2023-05-10T03:09:59;14.00;99.90
10536;DHT22;5316;49.538;8.352;2023-05-10T03:12:33;14.00;99.90
10536;DHT22;5316;49.538;8.352;2023-05-10T03:15:10;14.00;99.90
10536;DHT22;5316;49.538;8.352;2023-05-10T03:17:44;13.90;99.90
10536;DHT22;5316;49.538;8.352;2023-05-10T03:20:16;13.90;99.90
10536;DHT22;5316;49.538;8.352;2023-05-10T03:22:49;13.90;99.90
10536;DHT22;5316;49.538;8.352;2023-05-10T03:25:19;13.90;99.90
10536;DHT22;5316;49.538;8.352;2023-05-10T03:27:47;13.90;99.90
10536;DHT22;5316;49.538;8.352;2023-05-10T03:30:14;13.90;99.90
10536;DHT22;5316;49.538;8.352;2023-05-10T03:32:41;13.90;99.90
10536;DHT22;5316;49.538;8.352;2023-05-10T03:35:08;13.80;99.90
10536;DHT22;5316;49.538;8.352;2023-05-10T03:37:35;13.80;99.90
10536;DHT22;5316;49.538;8.352;2023-05-10T03:40:02;13.80;99.90
10536;DHT22;5316;49.538;8.352;2023-05-10T03:42:31;13.80;99.90
10536;DHT22;5316;49.538;8.352;2023-05-10T03:44:58;13.80;99.90
10536;DHT22;5316;49.538;8.352;2023-05-10T03:47:24;13.80;99.90
10536;DHT22;5316;49.538;8.352;2023-05-10T03:49:51;13.80;99.90
10536;DHT22;5316;49.538;8.352;2023-05-10T03:52:18;13.80;99.90
10536;DHT22;5316;49.538;8.352;2023-05-10T03:54:44;13.80;99.90
10536;DHT22;5316;49.538;8.352;2023-05-10T03:57:11;13.80;99.90
10536;DHT22;5316;49.538;8.352;2023-05-10T03:59:39;13.80;99.90
10536;DHT22;5316;49.538;8.352;2023-05-10T04:02:06;13.80;99.90
10536;DHT22;5316;49.538;8.352;2023-05-10T04:04:32;13.80;99.90
10536;DHT22;5316;49.538;8.352;2023-05-10T04:06:59;13.80;99.90
10536;DHT22;5316;49.538;8.352;2023-05-10T04:09:26;13.70;99.90
10536;DHT22;5316;49.538;8.352;2023-05-10T04:11:52;13.70;99.90
10536;DHT22;5316;49.538;8.352;2023-05-10T04:14:19;13.70;99.90
10536;DHT22;5316;49.538;8.352;2023-05-10T04:16:47;13.60;99.90
10536;DHT22;5316;49.538;8.352;2023-05-10T04:19:14;13.60;99.90
10536;DHT22;5316;49.538;8.352;2023-05-10T04:21:40;13.60;99.90
10536;DHT22;5316;49.538;8.352;2023-05-10T04:24:07;13.60;99.90
10536;DHT22;5316;49.538;8.352;2023-05-10T04:26:34;13.60;99.90
10536;DHT22;5316;49.538;8.352;2023-05-10T04:29:00;13.60;99.90
10536;DHT22;5316;49.538;8.352;2023-05-10T04:31:27;13.60;99.90
10536;DHT22;5316;49.538;8.352;2023-05-10T04:33:56;13.60;99.90
10536;DHT22;5316;49.538;8.352;2023-05-10T04:36:22;13.60;99.90
10536;DHT22;5316;49.538;8.352;2023-05-10T04:38:49;13.60;99.90
10536;DHT22;5316;49.538;8.352;2023-05-10T04:41:16;13.60;99.90
10536;DHT22;5316;49.538;8.352;2023-05-10T04:46:17;13.60;99.90
10536;DHT22;5316;49.538;8.352;2023-05-10T04:50:43;13.70;99.90
10536;DHT22;5316;49.538;8.352;2023-05-10T04:53:10;13.70;99.90
10536;DHT22;5316;49.538;8.352;2023-05-10T04:55:38;13.70;99.90
10536;DHT22;5316;49.538;8.352;2023-05-10T04:58:04;13.70;99.90
10536;DHT22;5316;49.538;8.352;2023-05-10T05:00:32;13.80;99.90
10536;DHT22;5316;49.538;8.352;2023-05-10T05:02:59;13.80;99.90
10536;DHT22;5316;49.538;8.352;2023-05-10T05:05:26;13.80;99.90
10536;DHT22;5316;49.538;8.352;2023-05-10T05:07:55;13.80;99.90
10536;DHT22;5316;49.538;8.352;2023-05-10T05:10:21;13.90;99.90
10536;DHT22;5316;49.538;8.352;2023-05-10T05:12:49;13.90;99.90
10536;DHT22;5316;49.538;8.352;2023-05-10T05:15:16;13.90;99.90
10536;DHT22;5316;49.538;8.352;2023-05-10T05:17:43;13.90;99.90
10536;DHT22;5316;49.538;8.352;2023-05-10T05:20:10;13.90;99.90
10536;DHT22;5316;49.538;8.352;2023-05-10T05:22:38;13.90;99.90
10536;DHT22;5316;49.538;8.352;2023-05-10T05:25:08;14.00;99.90
10536;DHT22;5316;49.538;8.352;2023-05-10T05:27:35;14.00;99.90
10536;DHT22;5316;49.538;8.352;2023-05-10T05:30:02;14.00;99.90
10536;DHT22;5316;49.538;8.352;2023-05-10T05:32:29;14.10;99.90
10536;DHT22;5316;49.538;8.352;2023-05-10T05:34:56;14.10;99.90
10536;DHT22;5316;49.538;8.352;2023-05-10T05:37:23;14.20;99.90
10536;DHT22;5316;49.538;8.352;2023-05-10T05:39:50;14.30;99.90
10536;DHT22;5316;49.538;8.352;2023-05-10T05:42:18;14.30;99.90
10536;DHT22;5316;49.538;8.352;2023-05-10T05:44:45;14.40;99.90
10536;DHT22;5316;49.538;8.352;2023-05-10T05:47:12;14.40;99.90
10536;DHT22;5316;49.538;8.352;2023-05-10T05:49:39;14.50;99.90
10536;DHT22;5316;49.538;8.352;2023-05-10T05:52:06;14.50;99.90
10536;DHT22;5316;49.538;8.352;2023-05-10T05:54:33;14.60;99.90
10536;DHT22;5316;49.538;8.352;2023-05-10T05:57:00;14.70;99.90
10536;DHT22;5316;49.538;8.352;2023-05-10T05:59:28;14.70;99.90
10536;DHT22;5316;49.538;8.352;2023-05-10T06:01:55;14.70;99.90
10536;DHT22;5316;49.538;8.352;2023-05-10T06:04:22;14.80;99.90
10536;DHT22;5316;49.538;8.352;2023-05-10T06:06:49;14.80;99.90
10536;DHT22;5316;49.538;8.352;2023-05-10T06:09:16;14.90;99.90
10536;DHT22;5316;49.538;8.352;2023-05-10T06:11:43;14.90;99.90
10536;DHT22;5316;49.538;8.352;2023-05-10T06:14:10;14.90;99.90
10536;DHT22;5316;49.538;8.352;2023-05-10T06:16:38;15.00;99.90
10536;DHT22;5316;49.538;8.352;2023-05-10T06:19:05;15.00;99.90
10536;DHT22;5316;49.538;8.352;2023-05-10T06:21:32;15.00;99.90
10536;DHT22;5316;49.538;8.352;2023-05-10T06:23:58;15.10;99.90
10536;DHT22;5316;49.538;8.352;2023-05-10T06:26:27;15.10;99.90
10536;DHT22;5316;49.538;8.352;2023-05-10T06:28:54;15.10;99.90
10536;DHT22;5316;49.538;8.352;2023-05-10T06:31:21;15.20;99.90
10536;DHT22;5316;49.538;8.352;2023-05-10T06:33:49;15.20;99.90
10536;DHT22;5316;49.538;8.352;2023-05-10T06:36:16;15.30;99.90
10536;DHT22;5316;49.538;8.352;2023-05-10T06:38:43;15.40;99.90
10536;DHT22;5316;49.538;8.352;2023-05-10T06:41:10;15.30;99.90
10536;DHT22;5316;49.538;8.352;2023-05-10T06:43:37;15.40;99.90
10536;DHT22;5316;49.538;8.352;2023-05-10T06:46:05;15.40;99.90
10536;DHT22;5316;49.538;8.352;2023-05-10T06:48:33;15.50;99.90
10536;DHT22;5316;49.538;8.352;2023-05-10T06:51:01;15.50;99.90
10536;DHT22;5316;49.538;8.352;2023-05-10T06:53:28;15.50;99.90
10536;DHT22;5316;49.538;8.352;2023-05-10T06:55:55;15.50;99.90
10536;DHT22;5316;49.538;8.352;2023-05-10T06:58:31;15.50;99.90
10536;DHT22;5316;49.538;8.352;2023-05-10T07:01:02;15.50;99.90
10536;DHT22;5316;49.538;8.352;2023-05-10T07:03:35;15.60;99.90
10536;DHT22;5316;49.538;8.352;2023-05-10T07:06:04;15.60;99.90
10536;DHT22;5316;49.538;8.352;2023-05-10T07:08:32;15.60;99.90
10536;DHT22;5316;49.538;8.352;2023-05-10T07:11:00;15.70;99.90
10536;DHT22;5316;49.538;8.352;2023-05-10T07:13:28;15.80;99.90
10536;DHT22;5316;49.538;8.352;2023-05-10T07:15:55;15.80;99.90
10536;DHT22;5316;49.538;8.352;2023-05-10T07:18:22;15.90;99.90
10536;DHT22;5316;49.538;8.352;2023-05-10T07:20:49;16.00;99.90
10536;DHT22;5316;49.538;8.352;2023-05-10T07:23:18;16.00;99.90
10536;DHT22;5316;49.538;8.352;2023-05-10T07:25:45;16.00;99.90
10536;DHT22;5316;49.538;8.352;2023-05-10T07:28:13;16.10;99.90
10536;DHT22;5316;49.538;8.352;2023-05-10T07:30:40;16.20;99.90
10536;DHT22;5316;49.538;8.352;2023-05-10T07:33:07;16.20;99.90
10536;DHT22;5316;49.538;8.352;2023-05-10T07:35:34;16.20;99.90
10536;DHT22;5316;49.538;8.352;2023-05-10T07:38:02;16.30;99.90
10536;DHT22;5316;49.538;8.352;2023-05-10T07:40:30;16.20;99.90
10536;DHT22;5316;49.538;8.352;2023-05-10T07:42:57;16.20;99.90
10536;DHT22;5316;49.538;8.352;2023-05-10T07:45:25;16.10;99.90
10536;DHT22;5316;49.538;8.352;2023-05-10T07:47:52;16.10;99.90
10536;DHT22;5316;49.538;8.352;2023-05-10T07:50:19;16.00;99.90
10536;DHT22;5316;49.538;8.352;2023-05-10T07:52:46;15.90;99.90
10536;DHT22;5316;49.538;8.352;2023-05-10T07:55:14;15.90;99.90
10536;DHT22;5316;49.538;8.352;2023-05-10T07:57:42;15.90;99.90
10536;DHT22;5316;49.538;8.352;2023-05-10T08:00:12;15.90;99.90
10536;DHT22;5316;49.538;8.352;2023-05-10T08:02:39;16.00;99.90
10536;DHT22;5316;49.538;8.352;2023-05-10T08:05:07;16.10;99.90
10536;DHT22;5316;49.538;8.352;2023-05-10T08:07:34;16.20;99.90
10536;DHT22;5316;49.538;8.352;2023-05-10T08:10:01;16.30;99.90
10536;DHT22;5316;49.538;8.352;2023-05-10T08:12:28;16.50;96.70
10536;DHT22;5316;49.538;8.352;2023-05-10T08:14:57;16.60;59.70
10536;DHT22;5316;49.538;8.352;2023-05-10T08:17:24;16.60;53.60
10536;DHT22;5316;49.538;8.352;2023-05-10T08:19:50;16.70;65.00
10536;DHT22;5316;49.538;8.352;2023-05-10T08:22:17;16.80;48.60
10536;DHT22;5316;49.538;8.352;2023-05-10T08:24:44;16.90;58.20
10536;DHT22;5316;49.538;8.352;2023-05-10T08:27:11;17.00;3.90
10536;DHT22;5316;49.538;8.352;2023-05-10T08:29:38;16.90;1.00
10536;DHT22;5316;49.538;8.352;2023-05-10T08:32:06;16.80;1.00
10536;DHT22;5316;49.538;8.352;2023-05-10T08:34:33;16.90;1.00
10536;DHT22;5316;49.538;8.352;2023-05-10T08:37:00;16.80;6.50
10536;DHT22;5316;49.538;8.352;2023-05-10T08:39:26;16.90;30.00
10536;DHT22;5316;49.538;8.352;2023-05-10T08:41:54;16.80;32.60
10536;DHT22;5316;49.538;8.352;2023-05-10T08:44:25;16.90;53.00
10536;DHT22;5316;49.538;8.352;2023-05-10T08:46:53;16.80;74.50
10536;DHT22;5316;49.538;8.352;2023-05-10T08:49:22;16.60;99.90
10536;DHT22;5316;49.538;8.352;2023-05-10T08:51:54;16.40;99.90
10536;DHT22;5316;49.538;8.352;2023-05-10T08:54:22;16.50;99.90
10536;DHT22;5316;49.538;8.352;2023-05-10T08:56:49;16.50;99.90
10536;DHT22;5316;49.538;8.352;2023-05-10T08:59:16;16.50;99.90
10536;DHT22;5316;49.538;8.352;2023-05-10T09:01:44;16.50;94.90
10536;DHT22;5316;49.538;8.352;2023-05-10T09:04:13;16.70;71.30
10536;DHT22;5316;49.538;8.352;2023-05-10T09:06:41;16.80;46.80
10536;DHT22;5316;49.538;8.352;2023-05-10T09:09:08;16.80;38.10
10536;DHT22;5316;49.538;8.352;2023-05-10T09:11:35;16.80;20.70
10536;DHT22;5316;49.538;8.352;2023-05-10T09:14:02;16.80;10.50
10536;DHT22;5316;49.538;8.352;2023-05-10T09:16:29;16.70;14.00
10536;DHT22;5316;49.538;8.352;2023-05-10T09:18:56;16.70;2.30
10536;DHT22;5316;49.538;8.352;2023-05-10T09:21:23;16.70;7.90
10536;DHT22;5316;49.538;8.352;2023-05-10T09:23:51;16.70;25.70
10536;DHT22;5316;49.538;8.352;2023-05-10T09:26:22;16.70;50.10
10536;DHT22;5316;49.538;8.352;2023-05-10T09:28:53;16.80;77.10
10536;DHT22;5316;49.538;8.352;2023-05-10T09:31:19;16.90;79.40
10536;DHT22;5316;49.538;8.352;2023-05-10T09:33:47;17.00;96.30
10536;DHT22;5316;49.538;8.352;2023-05-10T09:36:14;17.10;18.40
10536;DHT22;5316;49.538;8.352;2023-05-10T09:38:47;17.20;8.10
10536;DHT22;5316;49.538;8.352;2023-05-10T09:41:21;17.20;14.40
10536;DHT22;5316;49.538;8.352;2023-05-10T09:43:48;17.30;14.50
10536;DHT22;5316;49.538;8.352;2023-05-10T09:46:15;17.40;1.00
10536;DHT22;5316;49.538;8.352;2023-05-10T09:48:44;17.30;1.00
10536;DHT22;5316;49.538;8.352;2023-05-10T09:51:18;17.10;1.00
10536;DHT22;5316;49.538;8.352;2023-05-10T09:53:45;16.80;12.10
10536;DHT22;5316;49.538;8.352;2023-05-10T09:56:12;16.60;29.50
10536;DHT22;5316;49.538;8.352;2023-05-10T09:58:41;16.50;63.50
10536;DHT22;5316;49.538;8.352;2023-05-10T10:01:11;16.30;18.60
10536;DHT22;5316;49.538;8.352;2023-05-10T10:03:42;16.10;37.20
10536;DHT22;5316;49.538;8.352;2023-05-10T10:06:09;16.20;39.40
10536;DHT22;5316;49.538;8.352;2023-05-10T10:08:35;16.20;26.00
10536;DHT22;5316;49.538;8.352;2023-05-10T10:11:02;16.20;2.00
10536;DHT22;5316;49.538;8.352;2023-05-10T10:13:29;16.20;1.00
10536;DHT22;5316;49.538;8.352;2023-05-10T10:15:58;16.10;1.00
10536;DHT22;5316;49.538;8.352;2023-05-10T10:18:26;16.20;1.00
10536;DHT22;5316;49.538;8.352;2023-05-10T10:20:54;16.20;1.00
10536;DHT22;5316;49.538;8.352;2023-05-10T10:23:21;16.10;1.00
10536;DHT22;5316;49.538;8.352;2023-05-10T10:25:49;16.10;1.00
10536;DHT22;5316;49.538;8.352;2023-05-10T10:28:24;16.10;1.00
10536;DHT22;5316;49.538;8.352;2023-05-10T10:30:55;16.10;1.00
10536;DHT22;5316;49.538;8.352;2023-05-10T10:33:44;16.20;1.00
10536;DHT22;5316;49.538;8.352;2023-05-10T10:36:17;16.30;1.00
10536;DHT22;5316;49.538;8.352;2023-05-10T10:38:56;16.40;1.00
10536;DHT22;5316;49.538;8.352;2023-05-10T10:41:30;16.50;1.00
10536;DHT22;5316;49.538;8.352;2023-05-10T10:44:22;16.80;1.00
10536;DHT22;5316;49.538;8.352;2023-05-10T10:47:00;17.00;1.00
10536;DHT22;5316;49.538;8.352;2023-05-10T10:49:30;17.20;1.00
10536;DHT22;5316;49.538;8.352;2023-05-10T10:52:14;17.50;1.00
10536;DHT22;5316;49.538;8.352;2023-05-10T10:54:41;17.60;1.00
10536;DHT22;5316;49.538;8.352;2023-05-10T10:57:11;17.70;1.00
10536;DHT22;5316;49.538;8.352;2023-05-10T10:59:41;17.50;1.00
10536;DHT22;5316;49.538;8.352;2023-05-10T11:02:09;17.60;1.00
10536;DHT22;5316;49.538;8.352;2023-05-10T11:04:43;17.70;1.00
10536;DHT22;5316;49.538;8.352;2023-05-10T11:07:18;17.70;1.00
10536;DHT22;5316;49.538;8.352;2023-05-10T11:09:47;17.60;1.00
10536;DHT22;5316;49.538;8.352;2023-05-10T11:12:22;17.60;1.00
10536;DHT22;5316;49.538;8.352;2023-05-10T11:14:50;17.70;1.00
10536;DHT22;5316;49.538;8.352;2023-05-10T11:20:41;18.20;1.00
10536;DHT22;5316;49.538;8.352;2023-05-10T11:23:12;18.40;1.00
10536;DHT22;5316;49.538;8.352;2023-05-10T11:25:42;18.20;1.00
10536;DHT22;5316;49.538;8.352;2023-05-10T11:28:10;17.90;1.00
10536;DHT22;5316;49.538;8.352;2023-05-10T11:30:38;17.90;1.00
10536;DHT22;5316;49.538;8.352;2023-05-10T11:33:06;18.00;1.00
10536;DHT22;5316;49.538;8.352;2023-05-10T11:35:37;17.90;1.00
10536;DHT22;5316;49.538;8.352;2023-05-10T11:38:06;17.80;1.00
10536;DHT22;5316;49.538;8.352;2023-05-10T11:40:33;18.00;1.00
10536;DHT22;5316;49.538;8.352;2023-05-10T11:43:00;18.20;1.00
10536;DHT22;5316;49.538;8.352;2023-05-10T11:45:27;18.30;1.00
10536;DHT22;5316;49.538;8.352;2023-05-10T11:47:54;18.40;1.00
10536;DHT22;5316;49.538;8.352;2023-05-10T11:50:21;18.60;1.00
10536;DHT22;5316;49.538;8.352;2023-05-10T11:52:51;18.60;1.00
10536;DHT22;5316;49.538;8.352;2023-05-10T11:55:19;18.70;1.00
10536;DHT22;5316;49.538;8.352;2023-05-10T11:57:46;18.90;1.00
10536;DHT22;5316;49.538;8.352;2023-05-10T12:00:13;19.10;1.00
10536;DHT22;5316;49.538;8.352;2023-05-10T12:02:40;19.10;1.00
10536;DHT22;5316;49.538;8.352;2023-05-10T12:05:08;18.90;1.00
10536;DHT22;5316;49.538;8.352;2023-05-10T12:07:35;18.60;1.00
10536;DHT22;5316;49.538;8.352;2023-05-10T12:10:06;18.40;1.00
10536;DHT22;5316;49.538;8.352;2023-05-10T12:12:42;18.50;1.00
10536;DHT22;5316;49.538;8.352;2023-05-10T12:15:16;18.60;1.00
10536;DHT22;5316;49.538;8.352;2023-05-10T12:17:44;18.60;1.00
10536;DHT22;5316;49.538;8.352;2023-05-10T12:20:17;18.70;1.00
10536;DHT22;5316;49.538;8.352;2023-05-10T12:22:47;18.90;1.00
10536;DHT22;5316;49.538;8.352;2023-05-10T12:25:14;18.90;1.00
10536;DHT22;5316;49.538;8.352;2023-05-10T12:27:48;19.10;1.00
10536;DHT22;5316;49.538;8.352;2023-05-10T12:30:19;19.10;1.00
10536;DHT22;5316;49.538;8.352;2023-05-10T12:32:46;19.30;1.00
10536;DHT22;5316;49.538;8.352;2023-05-10T12:35:13;19.40;1.00
10536;DHT22;5316;49.538;8.352;2023-05-10T12:37:41;19.40;1.00
10536;DHT22;5316;49.538;8.352;2023-05-10T12:40:10;19.30;1.00
10536;DHT22;5316;49.538;8.352;2023-05-10T12:42:38;19.30;1.00
10536;DHT22;5316;49.538;8.352;2023-05-10T12:45:08;19.10;1.00
10536;DHT22;5316;49.538;8.352;2023-05-10T12:47:35;19.00;1.00
10536;DHT22;5316;49.538;8.352;2023-05-10T12:50:02;19.10;1.00
10536;DHT22;5316;49.538;8.352;2023-05-10T12:52:30;19.10;1.00
10536;DHT22;5316;49.538;8.352;2023-05-10T12:54:58;19.30;1.00
10536;DHT22;5316;49.538;8.352;2023-05-10T12:57:24;19.20;1.00
10536;DHT22;5316;49.538;8.352;2023-05-10T12:59:51;19.00;1.00
10536;DHT22;5316;49.538;8.352;2023-05-10T13:02:19;18.90;1.00
10536;DHT22;5316;49.538;8.352;2023-05-10T13:04:47;18.80;1.00
10536;DHT22;5316;49.538;8.352;2023-05-10T13:07:14;18.80;1.00
10536;DHT22;5316;49.538;8.352;2023-05-10T13:09:41;19.00;1.00
10536;DHT22;5316;49.538;8.352;2023-05-10T13:12:07;19.20;1.00
10536;DHT22;5316;49.538;8.352;2023-05-10T13:14:34;19.40;1.00
10536;DHT22;5316;49.538;8.352;2023-05-10T13:17:01;19.70;1.00
10536;DHT22;5316;49.538;8.352;2023-05-10T13:19:29;19.80;1.00
10536;DHT22;5316;49.538;8.352;2023-05-10T13:21:55;19.90;1.00
10536;DHT22;5316;49.538;8.352;2023-05-10T13:24:23;20.10;1.00
10536;DHT22;5316;49.538;8.352;2023-05-10T13:26:50;20.30;1.00
10536;DHT22;5316;49.538;8.352;2023-05-10T13:29:17;20.50;1.00
10536;DHT22;5316;49.538;8.352;2023-05-10T13:31:44;20.60;1.00
10536;DHT22;5316;49.538;8.352;2023-05-10T13:34:12;20.50;1.00
10536;DHT22;5316;49.538;8.352;2023-05-10T13:36:40;20.40;1.00
10536;DHT22;5316;49.538;8.352;2023-05-10T13:39:06;20.40;1.00
10536;DHT22;5316;49.538;8.352;2023-05-10T13:41:34;20.20;1.00
10536;DHT22;5316;49.538;8.352;2023-05-10T13:44:00;20.30;1.00
10536;DHT22;5316;49.538;8.352;2023-05-10T13:46:27;20.30;1.00
10536;DHT22;5316;49.538;8.352;2023-05-10T13:48:56;20.50;1.00
10536;DHT22;5316;49.538;8.352;2023-05-10T13:51:23;20.30;1.00
10536;DHT22;5316;49.538;8.352;2023-05-10T13:53:51;20.10;1.00
10536;DHT22;5316;49.538;8.352;2023-05-10T13:56:18;20.10;1.00
10536;DHT22;5316;49.538;8.352;2023-05-10T13:58:45;20.10;1.00
10536;DHT22;5316;49.538;8.352;2023-05-10T14:01:11;20.10;1.00
10536;DHT22;5316;49.538;8.352;2023-05-10T14:03:38;20.00;1.00
10536;DHT22;5316;49.538;8.352;2023-05-10T14:06:05;20.00;1.00
10536;DHT22;5316;49.538;8.352;2023-05-10T14:08:32;20.20;1.00
10536;DHT22;5316;49.538;8.352;2023-05-10T14:11:00;20.30;1.00
10536;DHT22;5316;49.538;8.352;2023-05-10T14:13:27;20.30;1.00
10536;DHT22;5316;49.538;8.352;2023-05-10T14:15:54;20.50;1.00
10536;DHT22;5316;49.538;8.352;2023-05-10T14:18:21;20.70;1.00
10536;DHT22;5316;49.538;8.352;2023-05-10T14:20:48;21.10;1.00
10536;DHT22;5316;49.538;8.352;2023-05-10T14:23:15;21.50;1.00
10536;DHT22;5316;49.538;8.352;2023-05-10T14:25:42;21.50;1.00
10536;DHT22;5316;49.538;8.352;2023-05-10T14:28:10;21.50;1.00
10536;DHT22;5316;49.538;8.352;2023-05-10T14:30:37;21.10;1.00
10536;DHT22;5316;49.538;8.352;2023-05-10T14:33:04;21.00;1.00
10536;DHT22;5316;49.538;8.352;2023-05-10T14:35:33;21.00;1.00
10536;DHT22;5316;49.538;8.352;2023-05-10T14:37:59;21.10;1.00
10536;DHT22;5316;49.538;8.352;2023-05-10T14:40:26;21.10;1.00
10536;DHT22;5316;49.538;8.352;2023-05-10T14:42:54;21.30;1.00
10536;DHT22;5316;49.538;8.352;2023-05-10T14:45:23;21.60;1.00
10536;DHT22;5316;49.538;8.352;2023-05-10T14:47:50;21.50;1.00
10536;DHT22;5316;49.538;8.352;2023-05-10T14:50:16;21.20;1.00
10536;DHT22;5316;49.538;8.352;2023-05-10T14:52:43;21.30;1.00
10536;DHT22;5316;49.538;8.352;2023-05-10T14:55:10;20.90;1.00
10536;DHT22;5316;49.538;8.352;2023-05-10T14:57:37;21.10;1.00
10536;DHT22;5316;49.538;8.352;2023-05-10T15:00:05;21.30;1.00
10536;DHT22;5316;49.538;8.352;2023-05-10T15:02:33;21.30;1.00
10536;DHT22;5316;49.538;8.352;2023-05-10T15:05:00;21.00;1.00
10536;DHT22;5316;49.538;8.352;2023-05-10T15:07:27;21.10;1.00
10536;DHT22;5316;49.538;8.352;2023-05-10T15:09:54;21.10;1.00
10536;DHT22;5316;49.538;8.352;2023-05-10T15:12:21;21.60;1.00
10536;DHT22;5316;49.538;8.352;2023-05-10T15:14:48;22.20;1.00
10536;DHT22;5316;49.538;8.352;2023-05-10T15:17:15;22.80;1.00
10536;DHT22;5316;49.538;8.352;2023-05-10T15:19:45;22.60;1.00
10536;DHT22;5316;49.538;8.352;2023-05-10T15:22:12;23.10;1.00
10536;DHT22;5316;49.538;8.352;2023-05-10T15:24:39;23.70;1.00
10536;DHT22;5316;49.538;8.352;2023-05-10T15:27:05;24.00;1.00
10536;DHT22;5316;49.538;8.352;2023-05-10T15:29:32;23.70;1.00
10536;DHT22;5316;49.538;8.352;2023-05-10T15:32:01;23.70;1.00
10536;DHT22;5316;49.538;8.352;2023-05-10T15:34:28;23.70;1.00
10536;DHT22;5316;49.538;8.352;2023-05-10T15:36:57;23.50;1.00
10536;DHT22;5316;49.538;8.352;2023-05-10T15:39:24;23.70;1.00
10536;DHT22;5316;49.538;8.352;2023-05-10T15:41:50;23.30;1.00
10536;DHT22;5316;49.538;8.352;2023-05-10T15:44:17;23.20;1.00
10536;DHT22;5316;49.538;8.352;2023-05-10T15:46:44;23.30;1.00
10536;DHT22;5316;49.538;8.352;2023-05-10T15:49:11;23.30;1.00
10536;DHT22;5316;49.538;8.352;2023-05-10T15:51:37;23.00;1.00
10536;DHT22;5316;49.538;8.352;2023-05-10T15:54:05;22.80;1.00
10536;DHT22;5316;49.538;8.352;2023-05-10T15:56:32;22.60;1.00
10536;DHT22;5316;49.538;8.352;2023-05-10T15:58:59;22.10;1.00
10536;DHT22;5316;49.538;8.352;2023-05-10T16:01:26;21.80;1.00
10536;DHT22;5316;49.538;8.352;2023-05-10T16:03:53;21.70;1.00
10536;DHT22;5316;49.538;8.352;2023-05-10T16:06:20;21.60;1.00